Time,TemperatureF,DewpointF,PressureIn,WindDirection,WindDirectionDegrees,WindSpeedMPH,WindSpeedGustMPH,Humidity,HourlyPrecipIn,Conditions,Clouds,dailyrainin,SoftwareType,DateUTC
2013-09-21 00:01:00,69.5,66.4,29.74,WSW,248,0.0,0.0,90,0.00,,,0.00,WeatherCatV1.21B27,2013-09-21 04:01:00,
2013-09-21 00:02:00,69.5,66.4,29.74,WSW,248,0.0,0.0,90,0.00,,,0.00,WeatherCatV1.21B27,2013-09-21 04:02:00,
2013-09-21 00:03:00,69.5,66.4,29.74,WSW,248,0.0,0.0,90,0.00,,,0.00,WeatherCatV1.21B27,2013-09-21 04:03:00,
2013-09-21 00:05:00,69.5,66.4,29.73,WSW,248,0.0,0.0,90,0.00,,,0.00,WeatherCatV1.21B27,2013-09-21 04:05:00,
2013-09-21 00:09:00,69.5,66.4,29.73,WSW,248,0.0,0.0,90,0.00,,,0.00,WeatherCatV1.21B27,2013-09-21 04:09:00,
2013-09-21 00:14:00,69.4,66.3,29.73,WSW,248,0.0,0.0,90,0.00,,,0.00,WeatherCatV1.21B27,2013-09-21 04:14:00,
2013-09-21 00:19:00,69.4,66.3,29.73,WSW,248,0.0,0.0,90,0.00,,,0.00,WeatherCatV1.21B27,2013-09-21 04:19:00,
2013-09-21 00:24:00,69.3,66.2,29.73,WSW,248,0.0,0.0,90,0.00,,,0.00,WeatherCatV1.21B27,2013-09-21 04:24:00,
2013-09-21 00:29:00,69.2,66.4,29.73,WSW,248,0.0,0.0,91,0.00,,,0.00,WeatherCatV1.21B27,2013-09-21 04:29:00,
2013-09-21 00:34:00,69.2,66.4,29.73,WSW,248,0.0,0.0,91,0.00,,,0.00,WeatherCatV1.21B27,2013-09-21 04:34:00,
2013-09-21 00:39:00,69.2,66.4,29.73,WSW,248,0.0,0.0,91,0.00,,,0.00,WeatherCatV1.21B27,2013-09-21 04:39:00,
2013-09-21 00:44:00,69.2,66.4,29.72,WSW,248,0.0,0.0,91,0.00,,,0.00,WeatherCatV1.21B27,2013-09-21 04:44:00,
2013-09-21 00:49:00,69.2,66.4,29.72,WSW,248,0.0,0.0,91,0.00,,,0.00,WeatherCatV1.21B27,2013-09-21 04:49:00,
2013-09-21 00:54:00,69.2,66.4,29.72,WSW,248,0.0,0.0,91,0.00,,,0.00,WeatherCatV1.21B27,2013-09-21 04:54:00,
2013-09-21 00:59:00,69.2,66.4,29.72,WSW,248,0.0,0.0,91,0.00,,,0.00,WeatherCatV1.21B27,2013-09-21 04:59:00,
2013-09-21 01:04:00,69.2,66.4,29.72,WSW,248,0.0,0.0,91,0.00,,,0.00,WeatherCatV1.21B27,2013-09-21 05:04:00,
2013-09-21 01:09:00,69.2,66.4,29.72,WSW,248,0.0,0.0,91,0.00,,,0.00,WeatherCatV1.21B27,2013-09-21 05:09:00,
2013-09-21 01:14:00,69.2,66.4,29.72,WSW,248,0.0,0.0,91,0.00,,,0.00,WeatherCatV1.21B27,2013-09-21 05:14:00,
2013-09-21 01:19:00,69.2,66.4,29.72,WSW,248,0.0,0.0,91,0.00,,,0.00,WeatherCatV1.21B27,2013-09-21 05:19:00,
2013-09-21 01:24:00,69.3,66.6,29.72,WSW,248,0.0,0.0,91,0.00,,,0.00,WeatherCatV1.21B27,2013-09-21 05:24:00,
2013-09-21 01:29:00,69.3,66.6,29.72,WSW,248,0.0,0.0,91,0.00,,,0.00,WeatherCatV1.21B27,2013-09-21 05:29:00,
2013-09-21 01:35:00,69.4,66.7,29.72,WSW,248,2.0,2.0,91,0.00,,,0.00,WeatherCatV1.21B27,2013-09-21 05:35:00,
2013-09-21 01:40:00,69.3,66.6,29.72,West,277,2.0,5.0,91,0.00,,,0.00,WeatherCatV1.21B27,2013-09-21 05:40:00,
2013-09-21 01:46:00,69.1,66.4,29.72,West,272,3.0,5.0,91,0.00,,,0.00,WeatherCatV1.21B27,2013-09-21 05:46:00,
2013-09-21 01:51:00,68.9,66.2,29.72,WSW,244,3.0,4.0,91,0.00,,,0.00,WeatherCatV1.21B27,2013-09-21 05:51:00,
2013-09-21 01:56:00,68.7,66.0,29.72,SW,234,0.0,5.0,91,0.00,,,0.00,WeatherCatV1.21B27,2013-09-21 05:56:00,
2013-09-21 02:01:00,68.6,65.9,29.72,SW,226,1.0,3.0,91,0.00,,,0.00,WeatherCatV1.21B27,2013-09-21 06:01:00,
2013-09-21 02:06:00,68.5,65.8,29.72,SW,234,1.0,2.0,91,0.00,,,0.00,WeatherCatV1.21B27,2013-09-21 06:06:00,
2013-09-21 02:11:00,68.5,65.8,29.71,SW,234,0.0,2.0,91,0.00,,,0.00,WeatherCatV1.21B27,2013-09-21 06:11:00,
2013-09-21 02:16:00,68.4,65.7,29.71,SW,234,0.0,0.0,91,0.00,,,0.00,WeatherCatV1.21B27,2013-09-21 06:16:00,
2013-09-21 02:21:00,68.3,65.6,29.71,SW,234,0.0,0.0,91,0.00,,,0.00,WeatherCatV1.21B27,2013-09-21 06:21:00,
2013-09-21 02:26:00,68.3,65.6,29.71,SW,234,0.0,0.0,91,0.00,,,0.00,WeatherCatV1.21B27,2013-09-21 06:26:00,
2013-09-21 02:31:00,68.2,65.5,29.70,SW,234,0.0,0.0,91,0.00,,,0.00,WeatherCatV1.21B27,2013-09-21 06:31:00,
2013-09-21 02:36:00,68.1,65.4,29.70,SW,234,0.0,0.0,91,0.00,,,0.00,WeatherCatV1.21B27,2013-09-21 06:36:00,
2013-09-21 02:41:00,68.0,65.3,29.71,SW,234,0.0,0.0,91,0.00,,,0.00,WeatherCatV1.21B27,2013-09-21 06:41:00,
2013-09-21 02:46:00,67.9,65.2,29.71,SW,234,0.0,0.0,91,0.00,,,0.00,WeatherCatV1.21B27,2013-09-21 06:46:00,
2013-09-21 02:51:00,67.9,65.2,29.70,SW,234,0.0,0.0,91,0.00,,,0.00,WeatherCatV1.21B27,2013-09-21 06:51:00,
2013-09-21 02:56:00,67.8,65.1,29.70,SW,234,0.0,0.0,91,0.00,,,0.00,WeatherCatV1.21B27,2013-09-21 06:56:00,
2013-09-21 03:02:00,67.8,65.1,29.70,SW,234,0.0,0.0,91,0.00,,,0.00,WeatherCatV1.21B27,2013-09-21 07:02:00,
2013-09-21 03:07:00,67.8,65.1,29.70,SW,234,0.0,0.0,91,0.00,,,0.00,WeatherCatV1.21B27,2013-09-21 07:07:00,
2013-09-21 03:13:00,67.8,65.1,29.69,SW,234,0.0,0.0,91,0.00,,,0.00,WeatherCatV1.21B27,2013-09-21 07:13:00,
2013-09-21 03:18:00,67.7,65.0,29.70,SW,234,0.0,0.0,91,0.00,,,0.00,WeatherCatV1.21B27,2013-09-21 07:18:00,
2013-09-21 03:23:00,67.7,65.0,29.69,SW,234,0.0,0.0,91,0.00,,,0.00,WeatherCatV1.21B27,2013-09-21 07:23:00,
2013-09-21 03:28:00,67.6,64.9,29.69,SW,234,0.0,0.0,91,0.00,,,0.00,WeatherCatV1.21B27,2013-09-21 07:28:00,
2013-09-21 03:33:00,67.6,65.2,29.68,SW,234,0.0,0.0,92,0.00,,,0.00,WeatherCatV1.21B27,2013-09-21 07:33:00,
2013-09-21 03:38:00,67.6,65.2,29.68,SW,234,0.0,0.0,92,0.00,,,0.00,WeatherCatV1.21B27,2013-09-21 07:38:00,
2013-09-21 03:43:00,67.5,65.1,29.68,SW,234,0.0,0.0,92,0.00,,,0.00,WeatherCatV1.21B27,2013-09-21 07:43:00,
2013-09-21 03:48:00,67.5,65.1,29.68,SW,234,0.0,0.0,92,0.00,,,0.00,WeatherCatV1.21B27,2013-09-21 07:48:00,
2013-09-21 03:53:00,67.4,65.0,29.68,SW,234,0.0,0.0,92,0.00,,,0.00,WeatherCatV1.21B27,2013-09-21 07:53:00,
2013-09-21 03:58:00,67.4,65.0,29.67,SW,234,0.0,0.0,92,0.00,,,0.00,WeatherCatV1.21B27,2013-09-21 07:58:00,
2013-09-21 04:03:00,67.3,64.9,29.68,SW,234,0.0,0.0,92,0.00,,,0.00,WeatherCatV1.21B27,2013-09-21 08:03:00,
2013-09-21 04:08:00,67.3,64.9,29.68,SW,234,0.0,0.0,92,0.00,,,0.00,WeatherCatV1.21B27,2013-09-21 08:08:00,
2013-09-21 04:13:00,67.4,65.0,29.68,SW,234,0.0,0.0,92,0.00,,,0.00,WeatherCatV1.21B27,2013-09-21 08:13:00,
2013-09-21 04:18:00,67.4,65.0,29.68,SW,234,0.0,0.0,92,0.00,,,0.00,WeatherCatV1.21B27,2013-09-21 08:18:00,
2013-09-21 04:23:00,67.4,65.0,29.67,SW,234,0.0,0.0,92,0.00,,,0.00,WeatherCatV1.21B27,2013-09-21 08:23:00,
2013-09-21 04:28:00,67.4,65.0,29.67,SW,234,0.0,0.0,92,0.00,,,0.00,WeatherCatV1.21B27,2013-09-21 08:28:00,
2013-09-21 04:33:00,67.4,65.0,29.67,SW,234,0.0,0.0,92,0.00,,,0.00,WeatherCatV1.21B27,2013-09-21 08:33:00,
2013-09-21 04:38:00,67.3,64.9,29.67,SW,234,0.0,0.0,92,0.00,,,0.00,WeatherCatV1.21B27,2013-09-21 08:38:00,
2013-09-21 04:43:00,67.3,64.9,29.67,SW,234,0.0,0.0,92,0.00,,,0.00,WeatherCatV1.21B27,2013-09-21 08:43:00,
2013-09-21 04:48:00,67.3,64.9,29.66,SW,234,0.0,0.0,92,0.00,,,0.00,WeatherCatV1.21B27,2013-09-21 08:48:00,
2013-09-21 04:53:00,67.3,64.9,29.66,SW,234,0.0,0.0,92,0.00,,,0.00,WeatherCatV1.21B27,2013-09-21 08:53:00,
2013-09-21 04:58:00,67.2,64.8,29.66,SW,234,0.0,0.0,92,0.00,,,0.00,WeatherCatV1.21B27,2013-09-21 08:58:00,
2013-09-21 05:03:00,67.2,64.8,29.66,SW,234,0.0,0.0,92,0.00,,,0.00,WeatherCatV1.21B27,2013-09-21 09:03:00,
2013-09-21 05:08:00,67.2,64.8,29.65,SW,234,0.0,0.0,92,0.00,,,0.00,WeatherCatV1.21B27,2013-09-21 09:08:00,
2013-09-21 05:13:00,67.1,64.7,29.65,SW,234,0.0,0.0,92,0.00,,,0.00,WeatherCatV1.21B27,2013-09-21 09:13:00,
2013-09-21 05:18:00,67.1,64.7,29.65,SW,234,0.0,0.0,92,0.00,,,0.00,WeatherCatV1.21B27,2013-09-21 09:18:00,
2013-09-21 05:23:00,67.1,64.7,29.65,SW,234,0.0,0.0,92,0.00,,,0.00,WeatherCatV1.21B27,2013-09-21 09:23:00,
2013-09-21 05:28:00,67.1,64.7,29.65,SW,234,0.0,0.0,92,0.00,,,0.01,WeatherCatV1.21B27,2013-09-21 09:28:00,
2013-09-21 05:33:00,67.1,64.7,29.65,SW,234,0.0,0.0,92,0.11,,,0.02,WeatherCatV1.21B27,2013-09-21 09:33:00,
2013-09-21 05:38:00,67.1,64.7,29.64,SW,234,0.0,0.0,92,0.11,,,0.02,WeatherCatV1.21B27,2013-09-21 09:38:00,
2013-09-21 05:43:00,67.1,64.7,29.64,SW,234,0.0,0.0,92,0.07,,,0.03,WeatherCatV1.21B27,2013-09-21 09:43:00,
2013-09-21 05:48:00,67.1,64.7,29.64,SW,234,0.0,0.0,92,0.10,,,0.04,WeatherCatV1.21B27,2013-09-21 09:48:00,
2013-09-21 05:53:00,67.3,64.9,29.64,SW,234,0.0,0.0,92,1.83,,,0.08,WeatherCatV1.21B27,2013-09-21 09:53:00,
2013-09-21 05:58:00,67.4,65.0,29.64,SW,234,0.0,0.0,92,0.26,,,0.10,WeatherCatV1.21B27,2013-09-21 09:58:00,
2013-09-21 06:03:00,67.4,65.0,29.64,SW,234,0.0,0.0,92,0.09,,,0.11,WeatherCatV1.21B27,2013-09-21 10:03:00,
2013-09-21 06:08:00,67.5,65.1,29.63,SW,234,0.0,0.0,92,0.13,,,0.12,WeatherCatV1.21B27,2013-09-21 10:08:00,
2013-09-21 06:13:00,67.5,65.1,29.63,SW,234,0.0,0.0,92,0.10,,,0.12,WeatherCatV1.21B27,2013-09-21 10:13:00,
2013-09-21 06:18:00,67.6,65.2,29.63,SW,234,0.0,0.0,92,0.09,,,0.13,WeatherCatV1.21B27,2013-09-21 10:18:00,
2013-09-21 06:23:00,67.6,65.2,29.62,SW,234,0.0,0.0,92,0.11,,,0.14,WeatherCatV1.21B27,2013-09-21 10:23:00,
2013-09-21 06:28:00,67.6,65.2,29.62,SW,234,0.0,0.0,92,0.07,,,0.14,WeatherCatV1.21B27,2013-09-21 10:28:00,
2013-09-21 06:33:00,67.6,65.2,29.62,SW,234,0.0,0.0,92,0.05,,,0.15,WeatherCatV1.21B27,2013-09-21 10:33:00,
2013-09-21 06:38:00,67.6,65.2,29.62,SW,234,0.0,0.0,92,0.15,,,0.16,WeatherCatV1.21B27,2013-09-21 10:38:00,
2013-09-21 06:43:00,67.7,65.3,29.62,SW,234,0.0,0.0,92,0.21,,,0.18,WeatherCatV1.21B27,2013-09-21 10:43:00,
2013-09-21 06:48:00,67.6,65.2,29.65,WNW,288,6.0,10.0,92,1.26,,,0.24,WeatherCatV1.21B27,2013-09-21 10:48:00,
2013-09-21 06:53:00,64.4,61.4,29.65,WSW,254,3.0,7.0,90,2.05,,,0.32,WeatherCatV1.21B27,2013-09-21 10:53:00,
2013-09-21 06:58:00,63.2,60.5,29.65,WSW,237,3.0,4.0,91,0.94,,,0.38,WeatherCatV1.21B27,2013-09-21 10:58:00,
2013-09-21 07:03:00,63.0,60.6,29.65,SSW,202,3.0,5.0,92,0.36,,,0.43,WeatherCatV1.21B27,2013-09-21 11:03:00,
2013-09-21 07:08:00,63.0,60.6,29.65,SSW,202,0.0,1.0,92,0.57,,,0.47,WeatherCatV1.21B27,2013-09-21 11:08:00,
2013-09-21 07:13:00,62.9,60.5,29.66,SSW,213,1.0,2.0,92,0.58,,,0.51,WeatherCatV1.21B27,2013-09-21 11:13:00,
2013-09-21 07:18:00,62.9,60.5,29.66,SSW,213,0.0,0.0,92,0.57,,,0.55,WeatherCatV1.21B27,2013-09-21 11:18:00,
2013-09-21 07:23:00,62.9,60.5,29.66,SSW,213,0.0,0.0,92,0.98,,,0.62,WeatherCatV1.21B27,2013-09-21 11:23:00,
2013-09-21 07:28:00,63.0,60.6,29.66,SSW,213,0.0,0.0,92,0.33,,,0.66,WeatherCatV1.21B27,2013-09-21 11:28:00,
2013-09-21 07:33:00,63.0,60.6,29.66,SSW,213,0.0,0.0,92,0.21,,,0.68,WeatherCatV1.21B27,2013-09-21 11:33:00,
2013-09-21 07:38:00,63.0,60.6,29.66,SSW,213,0.0,0.0,92,0.16,,,0.70,WeatherCatV1.21B27,2013-09-21 11:38:00,
2013-09-21 07:45:00,63.0,60.6,29.65,SSW,213,0.0,0.0,92,0.14,,,0.71,WeatherCatV1.21B27,2013-09-21 11:45:00,
2013-09-21 07:50:00,62.9,60.5,29.65,SSW,213,0.0,0.0,92,0.12,,,0.72,WeatherCatV1.21B27,2013-09-21 11:50:00,
2013-09-21 07:55:00,62.9,60.5,29.65,SSW,213,0.0,0.0,92,0.09,,,0.73,WeatherCatV1.21B27,2013-09-21 11:55:00,
2013-09-21 08:00:00,63.0,60.6,29.65,SSW,213,0.0,0.0,92,0.09,,,0.73,WeatherCatV1.21B27,2013-09-21 12:00:00,
2013-09-21 08:05:00,63.0,60.6,29.65,SSW,213,0.0,0.0,92,0.06,,,0.74,WeatherCatV1.21B27,2013-09-21 12:05:00,
2013-09-21 08:10:00,63.0,60.6,29.64,SSW,213,0.0,0.0,92,0.15,,,0.75,WeatherCatV1.21B27,2013-09-21 12:10:00,
2013-09-21 08:15:00,63.0,60.6,29.64,SSW,213,0.0,0.0,92,0.14,,,0.76,WeatherCatV1.21B27,2013-09-21 12:15:00,
2013-09-21 08:20:00,63.0,60.6,29.64,SSW,213,0.0,0.0,92,0.12,,,0.77,WeatherCatV1.21B27,2013-09-21 12:20:00,
2013-09-21 08:25:00,62.9,60.5,29.64,SSW,213,0.0,0.0,92,0.09,,,0.78,WeatherCatV1.21B27,2013-09-21 12:25:00,
2013-09-21 08:30:00,63.0,60.6,29.65,SSW,213,0.0,0.0,92,0.15,,,0.79,WeatherCatV1.21B27,2013-09-21 12:30:00,
2013-09-21 08:35:00,63.0,60.6,29.65,SSW,213,0.0,0.0,92,0.32,,,0.81,WeatherCatV1.21B27,2013-09-21 12:35:00,
2013-09-21 08:40:00,63.0,60.6,29.65,SSW,213,0.0,0.0,92,0.36,,,0.83,WeatherCatV1.21B27,2013-09-21 12:40:00,
2013-09-21 08:45:00,63.1,60.7,29.65,SSW,213,0.0,0.0,92,0.31,,,0.86,WeatherCatV1.21B27,2013-09-21 12:45:00,
2013-09-21 08:50:00,63.1,60.7,29.65,SSW,213,0.0,0.0,92,0.21,,,0.88,WeatherCatV1.21B27,2013-09-21 12:50:00,
2013-09-21 08:55:00,63.1,60.7,29.66,SSW,213,0.0,0.0,92,0.14,,,0.89,WeatherCatV1.21B27,2013-09-21 12:55:00,
2013-09-21 09:00:00,63.1,60.7,29.66,SSW,213,0.0,0.0,92,0.09,,,0.90,WeatherCatV1.21B27,2013-09-21 13:00:00,
2013-09-21 09:05:00,63.1,60.7,29.66,SSW,213,0.0,0.0,92,0.09,,,0.90,WeatherCatV1.21B27,2013-09-21 13:05:00,
2013-09-21 09:10:00,63.2,60.8,29.66,SSW,213,0.0,0.0,92,0.10,,,0.91,WeatherCatV1.21B27,2013-09-21 13:10:00,
2013-09-21 09:15:00,63.3,60.9,29.66,SSW,213,0.0,0.0,92,0.06,,,0.91,WeatherCatV1.21B27,2013-09-21 13:15:00,
2013-09-21 09:20:00,63.3,60.9,29.66,SSW,213,0.0,0.0,92,0.06,,,0.92,WeatherCatV1.21B27,2013-09-21 13:20:00,
2013-09-21 09:25:00,63.2,60.8,29.66,SSW,213,0.0,0.0,92,0.09,,,0.93,WeatherCatV1.21B27,2013-09-21 13:25:00,
2013-09-21 09:30:00,63.1,60.7,29.66,SSW,213,0.0,0.0,92,0.08,,,0.93,WeatherCatV1.21B27,2013-09-21 13:30:00,
2013-09-21 09:35:00,63.2,60.8,29.66,SSW,213,0.0,0.0,92,0.06,,,0.94,WeatherCatV1.21B27,2013-09-21 13:35:00,
2013-09-21 09:40:00,63.2,60.8,29.66,SSW,213,0.0,0.0,92,0.09,,,0.95,WeatherCatV1.21B27,2013-09-21 13:40:00,
2013-09-21 09:45:00,63.2,60.8,29.66,SSW,213,0.0,0.0,92,0.09,,,0.95,WeatherCatV1.21B27,2013-09-21 13:45:00,
2013-09-21 09:50:00,63.1,60.7,29.66,SSW,213,0.0,0.0,92,0.05,,,0.95,WeatherCatV1.21B27,2013-09-21 13:50:00,
2013-09-21 09:55:00,63.1,61.0,29.67,SSW,213,0.0,0.0,93,0.05,,,0.96,WeatherCatV1.21B27,2013-09-21 13:55:00,
2013-09-21 10:00:00,63.1,61.0,29.67,SSW,213,0.0,0.0,93,0.05,,,0.96,WeatherCatV1.21B27,2013-09-21 14:00:00,
2013-09-21 10:05:00,63.1,61.0,29.67,SSW,213,0.0,0.0,93,0.05,,,0.97,WeatherCatV1.21B27,2013-09-21 14:05:00,
2013-09-21 10:10:00,63.1,61.0,29.67,SSW,213,0.0,0.0,93,0.05,,,0.97,WeatherCatV1.21B27,2013-09-21 14:10:00,
2013-09-21 10:15:00,63.2,61.1,29.66,SSW,213,0.0,0.0,93,0.06,,,0.98,WeatherCatV1.21B27,2013-09-21 14:15:00,
2013-09-21 10:20:00,63.3,61.2,29.66,SSW,213,0.0,0.0,93,0.06,,,0.98,WeatherCatV1.21B27,2013-09-21 14:20:00,
2013-09-21 10:25:00,63.2,60.8,29.66,SSW,213,0.0,0.0,92,0.05,,,0.98,WeatherCatV1.21B27,2013-09-21 14:25:00,
2013-09-21 10:30:00,63.0,60.9,29.66,SSW,213,0.0,0.0,93,0.05,,,0.99,WeatherCatV1.21B27,2013-09-21 14:30:00,
2013-09-21 10:35:00,63.1,61.0,29.66,SSW,213,0.0,0.0,93,0.05,,,0.99,WeatherCatV1.21B27,2013-09-21 14:35:00,
2013-09-21 10:40:00,63.2,61.1,29.66,SSW,213,0.0,0.0,93,0.04,,,0.99,WeatherCatV1.21B27,2013-09-21 14:40:00,
2013-09-21 10:45:00,63.2,61.1,29.66,SSW,213,0.0,0.0,93,0.00,,,0.99,WeatherCatV1.21B27,2013-09-21 14:45:00,
2013-09-21 10:50:00,63.3,61.2,29.66,SSW,213,0.0,0.0,93,0.00,,,0.99,WeatherCatV1.21B27,2013-09-21 14:50:00,
2013-09-21 10:55:00,63.2,60.8,29.66,SSW,213,0.0,0.0,92,0.00,,,1.00,WeatherCatV1.21B27,2013-09-21 14:55:00,
2013-09-21 11:00:00,63.1,61.0,29.66,SSW,213,0.0,0.0,93,0.00,,,1.00,WeatherCatV1.21B27,2013-09-21 15:00:00,
2013-09-21 11:05:00,63.0,60.9,29.66,SSW,213,0.0,0.0,93,0.05,,,1.01,WeatherCatV1.21B27,2013-09-21 15:05:00,
2013-09-21 11:10:00,63.0,60.9,29.66,SSW,213,0.0,0.0,93,0.05,,,1.01,WeatherCatV1.21B27,2013-09-21 15:10:00,
2013-09-21 11:15:00,63.0,60.9,29.66,SSW,213,0.0,0.0,93,0.14,,,1.03,WeatherCatV1.21B27,2013-09-21 15:15:00,
2013-09-21 11:20:00,63.0,60.9,29.66,SSW,213,0.0,0.0,93,0.11,,,1.03,WeatherCatV1.21B27,2013-09-21 15:20:00,
2013-09-21 11:25:00,63.1,61.0,29.65,SSW,213,0.0,0.0,93,0.10,,,1.04,WeatherCatV1.21B27,2013-09-21 15:25:00,
2013-09-21 11:30:00,63.1,61.0,29.65,SSW,213,0.0,0.0,93,0.12,,,1.05,WeatherCatV1.21B27,2013-09-21 15:30:00,
2013-09-21 11:35:00,63.1,61.0,29.65,SSW,213,1.0,1.0,93,0.09,,,1.06,WeatherCatV1.21B27,2013-09-21 15:35:00,
2013-09-21 11:40:00,63.0,60.9,29.64,SE,125,0.0,1.0,93,0.10,,,1.07,WeatherCatV1.21B27,2013-09-21 15:40:00,
2013-09-21 11:45:00,63.0,60.9,29.64,SE,126,0.0,0.0,93,0.09,,,1.07,WeatherCatV1.21B27,2013-09-21 15:45:00,
2013-09-21 11:50:00,63.0,60.9,29.65,ESE,106,0.0,0.0,93,0.08,,,1.08,WeatherCatV1.21B27,2013-09-21 15:50:00,
2013-09-21 11:55:00,63.0,60.9,29.65,ESE,106,0.0,0.0,93,0.08,,,1.09,WeatherCatV1.21B27,2013-09-21 15:55:00,
2013-09-21 12:00:00,63.0,60.9,29.65,ESE,107,0.0,0.0,93,0.10,,,1.10,WeatherCatV1.21B27,2013-09-21 16:00:00,
2013-09-21 12:05:00,63.1,61.0,29.64,ESE,107,0.0,0.0,93,0.10,,,1.10,WeatherCatV1.21B27,2013-09-21 16:05:00,
2013-09-21 12:10:00,63.1,61.0,29.65,ESE,106,0.0,0.0,93,0.08,,,1.11,WeatherCatV1.21B27,2013-09-21 16:10:00,
2013-09-21 12:15:00,63.2,61.1,29.65,ESE,107,0.0,0.0,93,0.08,,,1.12,WeatherCatV1.21B27,2013-09-21 16:15:00,
2013-09-21 12:20:00,63.2,61.1,29.66,ESE,117,0.0,0.0,93,0.33,,,1.14,WeatherCatV1.21B27,2013-09-21 16:20:00,
2013-09-21 12:25:00,63.2,61.1,29.65,ESE,117,0.0,0.0,93,0.26,,,1.17,WeatherCatV1.21B27,2013-09-21 16:25:00,
2013-09-21 12:30:00,63.2,61.1,29.65,ESE,117,0.0,0.0,93,0.23,,,1.19,WeatherCatV1.21B27,2013-09-21 16:30:00,
2013-09-21 12:35:00,63.2,61.1,29.65,ESE,117,0.0,0.0,93,0.18,,,1.21,WeatherCatV1.21B27,2013-09-21 16:35:00,
2013-09-21 12:40:00,63.2,61.1,29.65,ESE,117,0.0,0.0,93,0.10,,,1.22,WeatherCatV1.21B27,2013-09-21 16:40:00,
2013-09-21 12:45:00,63.3,61.2,29.65,ESE,117,1.0,2.0,93,0.19,,,1.24,WeatherCatV1.21B27,2013-09-21 16:45:00,
2013-09-21 12:50:00,63.2,61.1,29.65,ESE,117,0.0,1.0,93,0.22,,,1.25,WeatherCatV1.21B27,2013-09-21 16:50:00,
2013-09-21 12:55:00,63.0,60.9,29.65,ENE,74,1.0,2.0,93,0.24,,,1.27,WeatherCatV1.21B27,2013-09-21 16:55:00,
2013-09-21 13:00:00,62.6,60.2,29.66,WSW,248,1.0,3.0,92,0.26,,,1.29,WeatherCatV1.21B27,2013-09-21 17:00:00,
2013-09-21 13:05:00,62.4,60.3,29.66,West,264,1.0,3.0,93,0.16,,,1.31,WeatherCatV1.21B27,2013-09-21 17:05:00,
2013-09-21 13:10:00,62.4,60.3,29.65,West,264,0.0,0.0,93,0.12,,,1.32,WeatherCatV1.21B27,2013-09-21 17:10:00,
2013-09-21 13:15:00,62.4,60.3,29.66,West,266,0.0,2.0,93,0.06,,,1.32,WeatherCatV1.21B27,2013-09-21 17:15:00,
2013-09-21 13:20:00,62.4,60.3,29.66,West,266,0.0,1.0,93,0.05,,,1.33,WeatherCatV1.21B27,2013-09-21 17:20:00,
2013-09-21 13:25:00,62.4,60.3,29.66,West,265,0.0,0.0,93,0.05,,,1.33,WeatherCatV1.21B27,2013-09-21 17:25:00,
2013-09-21 13:31:00,62.4,60.3,29.65,West,265,0.0,0.0,93,0.04,,,1.33,WeatherCatV1.21B27,2013-09-21 17:31:00,
2013-09-21 13:36:00,62.4,60.3,29.65,West,265,0.0,0.0,93,0.00,,,1.33,WeatherCatV1.21B27,2013-09-21 17:36:00,
2013-09-21 13:41:00,62.5,60.4,29.65,West,265,0.0,0.0,93,0.00,,,1.33,WeatherCatV1.21B27,2013-09-21 17:41:00,
2013-09-21 13:46:00,62.6,60.5,29.65,ESE,107,0.0,0.0,93,0.00,,,1.33,WeatherCatV1.21B27,2013-09-21 17:46:00,
2013-09-21 13:51:00,62.7,60.6,29.65,ESE,107,0.0,0.0,93,0.00,,,1.33,WeatherCatV1.21B27,2013-09-21 17:51:00,
2013-09-21 13:56:00,62.7,60.6,29.64,ESE,108,0.0,0.0,93,0.00,,,1.33,WeatherCatV1.21B27,2013-09-21 17:56:00,
2013-09-21 14:01:00,62.7,60.6,29.65,ESE,108,0.0,0.0,93,0.00,,,1.33,WeatherCatV1.21B27,2013-09-21 18:01:00,
2013-09-21 14:06:00,62.7,60.6,29.64,ESE,108,0.0,0.0,93,0.00,,,1.33,WeatherCatV1.21B27,2013-09-21 18:06:00,
2013-09-21 14:11:00,62.7,60.6,29.65,West,279,1.0,2.0,93,0.00,,,1.33,WeatherCatV1.21B27,2013-09-21 18:11:00,
2013-09-21 14:16:00,62.7,60.6,29.65,West,273,1.0,5.0,93,0.00,,,1.33,WeatherCatV1.21B27,2013-09-21 18:16:00,
2013-09-21 14:21:00,62.8,60.7,29.64,SW,229,1.0,2.0,93,0.00,,,1.33,WeatherCatV1.21B27,2013-09-21 18:21:00,
2013-09-21 14:26:00,62.8,60.7,29.64,NNW,330,3.0,4.0,93,0.00,,,1.33,WeatherCatV1.21B27,2013-09-21 18:26:00,
2013-09-21 14:31:00,62.8,60.4,29.64,SW,225,4.0,7.0,92,0.00,,,1.33,WeatherCatV1.21B27,2013-09-21 18:31:00,
2013-09-21 14:36:00,62.9,60.5,29.64,West,271,3.0,5.0,92,0.00,,,1.33,WeatherCatV1.21B27,2013-09-21 18:36:00,
2013-09-21 14:41:00,63.0,60.6,29.65,WSW,241,2.0,3.0,92,0.00,,,1.33,WeatherCatV1.21B27,2013-09-21 18:41:00,
2013-09-21 14:46:00,63.1,60.7,29.65,SW,221,5.0,5.0,92,0.00,,,1.33,WeatherCatV1.21B27,2013-09-21 18:46:00,
2013-09-21 14:51:00,63.2,60.5,29.65,WSW,258,2.0,4.0,91,0.00,,,1.33,WeatherCatV1.21B27,2013-09-21 18:51:00,
2013-09-21 14:56:00,63.3,60.6,29.65,WSW,257,5.0,7.0,91,0.00,,,1.33,WeatherCatV1.21B27,2013-09-21 18:56:00,
2013-09-21 15:01:00,63.4,60.7,29.65,WSW,258,1.0,3.0,91,0.00,,,1.33,WeatherCatV1.21B27,2013-09-21 19:01:00,
2013-09-21 15:06:00,63.7,61.0,29.65,SSW,211,2.0,4.0,91,0.00,,,1.33,WeatherCatV1.21B27,2013-09-21 19:06:00,
2013-09-21 15:11:00,64.2,61.5,29.65,WSW,257,2.0,6.0,91,0.00,,,1.33,WeatherCatV1.21B27,2013-09-21 19:11:00,
2013-09-21 15:16:00,65.1,62.1,29.65,WSW,250,2.0,5.0,90,0.00,,,1.33,WeatherCatV1.21B27,2013-09-21 19:16:00,
2013-09-21 15:21:00,65.8,62.8,29.65,WSW,255,2.0,3.0,90,0.00,,,1.33,WeatherCatV1.21B27,2013-09-21 19:21:00,
2013-09-21 15:26:00,66.2,62.9,29.65,WNW,288,3.0,6.0,89,0.00,,,1.33,WeatherCatV1.21B27,2013-09-21 19:26:00,
2013-09-21 15:31:00,65.9,61.9,29.65,SW,223,3.0,10.0,87,0.00,,,1.33,WeatherCatV1.21B27,2013-09-21 19:31:00,
2013-09-21 15:36:00,65.8,61.5,29.65,WNW,290,3.0,5.0,86,0.00,,,1.33,WeatherCatV1.21B27,2013-09-21 19:36:00,
2013-09-21 15:41:00,65.9,61.3,29.66,SW,230,4.0,5.0,85,0.00,,,1.33,WeatherCatV1.21B27,2013-09-21 19:41:00,
2013-09-21 15:46:00,66.0,61.3,29.66,West,259,1.0,4.0,85,0.00,,,1.33,WeatherCatV1.21B27,2013-09-21 19:46:00,
2013-09-21 15:51:00,66.3,61.7,29.66,SW,231,0.0,3.0,85,0.00,,,1.33,WeatherCatV1.21B27,2013-09-21 19:51:00,
2013-09-21 15:56:00,66.4,61.1,29.66,West,273,2.0,4.0,83,0.00,,,1.33,WeatherCatV1.21B27,2013-09-21 19:56:00,
2013-09-21 16:01:00,66.2,61.2,29.66,WSW,249,4.0,5.0,84,0.00,,,1.33,WeatherCatV1.21B27,2013-09-21 20:01:00,
2013-09-21 16:06:00,66.4,61.1,29.66,WSW,238,2.0,4.0,83,0.00,,,1.33,WeatherCatV1.21B27,2013-09-21 20:06:00,
2013-09-21 16:11:00,66.7,61.4,29.66,WSW,258,7.0,7.0,83,0.00,,,1.33,WeatherCatV1.21B27,2013-09-21 20:11:00,
2013-09-21 16:16:00,66.7,61.0,29.66,WSW,239,3.0,8.0,82,0.00,,,1.33,WeatherCatV1.21B27,2013-09-21 20:16:00,
2013-09-21 16:21:00,66.7,61.0,29.66,SW,236,2.0,4.0,82,0.00,,,1.33,WeatherCatV1.21B27,2013-09-21 20:21:00,
2013-09-21 16:26:00,66.8,60.8,29.66,WSW,256,2.0,4.0,81,0.00,,,1.33,WeatherCatV1.21B27,2013-09-21 20:26:00,
2013-09-21 16:31:00,66.7,60.7,29.66,West,276,2.0,5.0,81,0.00,,,1.33,WeatherCatV1.21B27,2013-09-21 20:31:00,
2013-09-21 16:36:00,66.7,60.3,29.66,WNW,294,0.0,4.0,80,0.00,,,1.33,WeatherCatV1.21B27,2013-09-21 20:36:00,
2013-09-21 16:41:00,66.9,60.5,29.66,SW,223,3.0,4.0,80,0.00,,,1.33,WeatherCatV1.21B27,2013-09-21 20:41:00,
2013-09-21 16:46:00,66.7,60.7,29.66,SW,218,5.0,7.0,81,0.00,,,1.33,WeatherCatV1.21B27,2013-09-21 20:46:00,
2013-09-21 16:51:00,66.3,59.9,29.66,WSW,258,0.0,5.0,80,0.00,,,1.33,WeatherCatV1.21B27,2013-09-21 20:51:00,
2013-09-21 16:56:00,66.0,60.0,29.66,SW,234,2.0,2.0,81,0.00,,,1.33,WeatherCatV1.21B27,2013-09-21 20:56:00,
2013-09-21 17:01:00,65.4,59.4,29.66,NNE,32,0.0,4.0,81,0.00,,,1.33,WeatherCatV1.21B27,2013-09-21 21:01:00,
2013-09-21 17:06:00,65.0,59.0,29.66,SW,223,0.0,4.0,81,0.00,,,1.33,WeatherCatV1.21B27,2013-09-21 21:06:00,
2013-09-21 17:11:00,64.7,58.7,29.66,SW,227,5.0,5.0,81,0.00,,,1.33,WeatherCatV1.21B27,2013-09-21 21:11:00,
2013-09-21 17:16:00,64.6,59.0,29.67,NNE,19,1.0,5.0,82,0.00,,,1.33,WeatherCatV1.21B27,2013-09-21 21:16:00,
2013-09-21 17:21:00,64.1,58.8,29.67,North,5,2.0,4.0,83,0.00,,,1.34,WeatherCatV1.21B27,2013-09-21 21:21:00,
2013-09-21 17:26:00,63.3,58.4,29.68,NNW,333,3.0,8.0,84,0.00,,,1.34,WeatherCatV1.21B27,2013-09-21 21:26:00,
2013-09-21 17:31:00,62.8,57.9,29.68,West,261,1.0,6.0,84,0.00,,,1.34,WeatherCatV1.21B27,2013-09-21 21:31:00,
2013-09-21 17:36:00,62.6,58.0,29.68,West,268,0.0,5.0,85,0.00,,,1.34,WeatherCatV1.21B27,2013-09-21 21:36:00,
2013-09-21 17:41:00,62.4,57.8,29.69,WSW,247,4.0,7.0,85,0.00,,,1.35,WeatherCatV1.21B27,2013-09-21 21:41:00,
2013-09-21 17:46:00,62.4,57.8,29.69,WSW,257,2.0,5.0,85,0.00,,,1.35,WeatherCatV1.21B27,2013-09-21 21:46:00,
2013-09-21 17:51:00,62.5,57.9,29.69,SSW,207,1.0,4.0,85,0.00,,,1.35,WeatherCatV1.21B27,2013-09-21 21:51:00,
2013-09-21 17:56:00,62.6,58.0,29.70,WSW,254,1.0,5.0,85,0.00,,,1.35,WeatherCatV1.21B27,2013-09-21 21:56:00,
2013-09-21 18:01:00,62.6,57.7,29.70,WSW,252,3.0,7.0,84,0.00,,,1.35,WeatherCatV1.21B27,2013-09-21 22:01:00,
2013-09-21 18:06:00,62.7,57.5,29.70,WNW,286,2.0,6.0,83,0.00,,,1.35,WeatherCatV1.21B27,2013-09-21 22:06:00,
2013-09-21 18:11:00,62.8,57.5,29.70,SW,223,3.0,7.0,83,0.00,,,1.35,WeatherCatV1.21B27,2013-09-21 22:11:00,
2013-09-21 18:16:00,62.7,57.1,29.70,WNW,298,0.0,6.0,82,0.00,,,1.35,WeatherCatV1.21B27,2013-09-21 22:16:00,
2013-09-21 18:21:00,62.6,57.0,29.71,NNE,19,1.0,5.0,82,0.00,,,1.35,WeatherCatV1.21B27,2013-09-21 22:21:00,
2013-09-21 18:26:00,62.5,56.6,29.71,WSW,240,2.0,5.0,81,0.00,,,1.35,WeatherCatV1.21B27,2013-09-21 22:26:00,
2013-09-21 18:31:00,62.4,56.5,29.71,WSW,248,2.0,5.0,81,0.00,,,1.35,WeatherCatV1.21B27,2013-09-21 22:31:00,
2013-09-21 18:36:00,62.4,56.1,29.71,West,273,0.0,4.0,80,0.00,,,1.35,WeatherCatV1.21B27,2013-09-21 22:36:00,
2013-09-21 18:41:00,62.2,56.0,29.71,SW,226,1.0,3.0,80,0.00,,,1.35,WeatherCatV1.21B27,2013-09-21 22:41:00,
2013-09-21 18:46:00,62.1,55.8,29.72,SSW,207,4.0,4.0,80,0.00,,,1.35,WeatherCatV1.21B27,2013-09-21 22:46:00,
2013-09-21 18:51:00,62.1,56.2,29.72,SSW,207,0.0,7.0,81,0.00,,,1.35,WeatherCatV1.21B27,2013-09-21 22:51:00,
2013-09-21 18:56:00,62.2,56.0,29.72,NW,311,0.0,2.0,80,0.00,,,1.35,WeatherCatV1.21B27,2013-09-21 22:56:00,
2013-09-21 19:01:00,62.1,55.5,29.72,West,260,0.0,1.0,79,0.00,,,1.35,WeatherCatV1.21B27,2013-09-21 23:01:00,
2013-09-21 19:06:00,62.0,55.4,29.72,WSW,254,0.0,3.0,79,0.00,,,1.35,WeatherCatV1.21B27,2013-09-21 23:06:00,
2013-09-21 19:11:00,62.0,55.4,29.72,WSW,254,2.0,5.0,79,0.00,,,1.35,WeatherCatV1.21B27,2013-09-21 23:11:00,
2013-09-21 19:16:00,61.9,55.0,29.73,NE,47,0.0,0.0,78,0.00,,,1.35,WeatherCatV1.21B27,2013-09-21 23:16:00,
2013-09-21 19:21:00,61.8,54.5,29.72,WSW,240,0.0,3.0,77,0.00,,,1.35,WeatherCatV1.21B27,2013-09-21 23:21:00,
2013-09-21 19:26:00,61.7,54.8,29.73,WSW,240,0.0,0.0,78,0.00,,,1.35,WeatherCatV1.21B27,2013-09-21 23:26:00,
2013-09-21 19:31:00,61.5,54.6,29.73,SW,223,3.0,3.0,78,0.00,,,1.35,WeatherCatV1.21B27,2013-09-21 23:31:00,
2013-09-21 19:36:00,61.3,54.4,29.73,WSW,254,2.0,3.0,78,0.00,,,1.35,WeatherCatV1.21B27,2013-09-21 23:36:00,
2013-09-21 19:41:00,61.3,54.4,29.73,West,268,0.0,3.0,78,0.00,,,1.35,WeatherCatV1.21B27,2013-09-21 23:41:00,
2013-09-21 19:46:00,61.2,54.3,29.73,West,268,0.0,3.0,78,0.00,,,1.35,WeatherCatV1.21B27,2013-09-21 23:46:00,
2013-09-21 19:51:00,61.0,54.1,29.73,SSW,212,1.0,3.0,78,0.00,,,1.35,WeatherCatV1.21B27,2013-09-21 23:51:00,
2013-09-21 19:56:00,61.0,54.1,29.73,WSW,252,2.0,2.0,78,0.00,,,1.35,WeatherCatV1.21B27,2013-09-21 23:56:00,
2013-09-21 20:01:00,61.0,54.4,29.74,WSW,240,1.0,1.0,79,0.00,,,1.35,WeatherCatV1.21B27,2013-09-22 00:01:00,
2013-09-21 20:06:00,61.1,54.2,29.74,WSW,254,3.0,3.0,78,0.00,,,1.35,WeatherCatV1.21B27,2013-09-22 00:06:00,
2013-09-21 20:11:00,61.2,54.3,29.74,WNW,290,0.0,3.0,78,0.00,,,1.35,WeatherCatV1.21B27,2013-09-22 00:11:00,
2013-09-21 20:16:00,61.2,54.3,29.75,SW,229,0.0,3.0,78,0.00,,,1.35,WeatherCatV1.21B27,2013-09-22 00:16:00,
2013-09-21 20:21:00,61.1,54.2,29.75,WNW,285,2.0,2.0,78,0.00,,,1.35,WeatherCatV1.21B27,2013-09-22 00:21:00,
2013-09-21 20:26:00,61.3,54.4,29.75,West,262,2.0,4.0,78,0.00,,,1.35,WeatherCatV1.21B27,2013-09-22 00:26:00,
2013-09-21 20:31:00,61.4,54.5,29.75,SW,216,1.0,2.0,78,0.00,,,1.35,WeatherCatV1.21B27,2013-09-22 00:31:00,
2013-09-21 20:36:00,61.4,54.5,29.75,WNW,291,0.0,4.0,78,0.00,,,1.35,WeatherCatV1.21B27,2013-09-22 00:36:00,
2013-09-21 20:42:00,61.5,54.2,29.75,SW,221,1.0,4.0,77,0.00,,,1.35,WeatherCatV1.21B27,2013-09-22 00:42:00,
2013-09-21 20:47:00,61.5,53.9,29.75,WNW,284,0.0,5.0,76,0.00,,,1.35,WeatherCatV1.21B27,2013-09-22 00:47:00,
2013-09-21 20:52:00,61.6,54.0,29.76,WSW,240,2.0,2.0,76,0.00,,,1.35,WeatherCatV1.21B27,2013-09-22 00:52:00,
2013-09-21 20:57:00,61.7,54.4,29.76,WSW,252,0.0,0.0,77,0.00,,,1.35,WeatherCatV1.21B27,2013-09-22 00:57:00,
2013-09-21 21:02:00,61.7,54.0,29.76,West,272,0.0,0.0,76,0.00,,,1.35,WeatherCatV1.21B27,2013-09-22 01:02:00,
2013-09-21 21:07:00,61.4,53.8,29.76,SW,227,0.0,1.0,76,0.00,,,1.35,WeatherCatV1.21B27,2013-09-22 01:07:00,
2013-09-21 21:12:00,61.2,53.6,29.76,SW,226,0.0,0.0,76,0.00,,,1.35,WeatherCatV1.21B27,2013-09-22 01:12:00,
2013-09-21 21:17:00,61.0,53.7,29.76,SW,230,0.0,3.0,77,0.00,,,1.35,WeatherCatV1.21B27,2013-09-22 01:17:00,
2013-09-21 21:22:00,60.8,53.5,29.76,SW,230,0.0,0.0,77,0.00,,,1.35,WeatherCatV1.21B27,2013-09-22 01:22:00,
2013-09-21 21:27:00,60.6,53.3,29.76,SW,230,0.0,0.0,77,0.00,,,1.35,WeatherCatV1.21B27,2013-09-22 01:27:00,
2013-09-21 21:32:00,60.4,53.5,29.76,SW,230,0.0,0.0,78,0.00,,,1.35,WeatherCatV1.21B27,2013-09-22 01:32:00,
2013-09-21 21:37:00,60.4,53.8,29.76,SW,230,0.0,0.0,79,0.00,,,1.35,WeatherCatV1.21B27,2013-09-22 01:37:00,
2013-09-21 21:42:00,60.3,54.4,29.76,SW,230,0.0,0.0,81,0.00,,,1.35,WeatherCatV1.21B27,2013-09-22 01:42:00,
2013-09-21 21:47:00,60.1,54.2,29.76,SW,230,0.0,1.0,81,0.00,,,1.35,WeatherCatV1.21B27,2013-09-22 01:47:00,
2013-09-21 21:52:00,59.9,54.4,29.76,SW,230,0.0,0.0,82,0.00,,,1.35,WeatherCatV1.21B27,2013-09-22 01:52:00,
2013-09-21 21:57:00,59.6,54.1,29.76,SW,230,0.0,0.0,82,0.00,,,1.35,WeatherCatV1.21B27,2013-09-22 01:57:00,
2013-09-21 22:02:00,59.5,54.0,29.76,SW,230,0.0,0.0,82,0.00,,,1.35,WeatherCatV1.21B27,2013-09-22 02:02:00,
2013-09-21 22:07:00,59.6,54.1,29.76,SSW,192,0.0,0.0,82,0.00,,,1.35,WeatherCatV1.21B27,2013-09-22 02:07:00,
2013-09-21 22:12:00,59.7,54.2,29.76,SSW,192,0.0,0.0,82,0.00,,,1.35,WeatherCatV1.21B27,2013-09-22 02:12:00,
2013-09-21 22:17:00,59.7,54.2,29.76,SSW,192,0.0,0.0,82,0.00,,,1.35,WeatherCatV1.21B27,2013-09-22 02:17:00,
2013-09-21 22:22:00,59.8,54.6,29.77,SSW,192,0.0,0.0,83,0.00,,,1.35,WeatherCatV1.21B27,2013-09-22 02:22:00,
2013-09-21 22:27:00,59.9,54.7,29.77,SW,217,0.0,2.0,83,0.00,,,1.35,WeatherCatV1.21B27,2013-09-22 02:27:00,
2013-09-21 22:32:00,60.5,55.0,29.76,WNW,299,0.0,0.0,82,0.00,,,1.35,WeatherCatV1.21B27,2013-09-22 02:32:00,
2013-09-21 22:37:00,61.3,54.7,29.77,West,271,0.0,1.0,79,0.00,,,1.35,WeatherCatV1.21B27,2013-09-22 02:37:00,
2013-09-21 22:42:00,61.8,54.2,29.77,WNW,297,0.0,6.0,76,0.00,,,1.35,WeatherCatV1.21B27,2013-09-22 02:42:00,
2013-09-21 22:47:00,62.2,54.5,29.77,WNW,285,1.0,2.0,76,0.00,,,1.35,WeatherCatV1.21B27,2013-09-22 02:47:00,
2013-09-21 22:52:00,62.3,54.3,29.77,WSW,254,1.0,3.0,75,0.00,,,1.35,WeatherCatV1.21B27,2013-09-22 02:52:00,
2013-09-21 22:57:00,62.4,54.4,29.77,SW,228,0.0,0.0,75,0.00,,,1.35,WeatherCatV1.21B27,2013-09-22 02:57:00,
2013-09-21 23:02:00,62.4,54.7,29.77,NNE,30,4.0,5.0,76,0.00,,,1.35,WeatherCatV1.21B27,2013-09-22 03:02:00,
2013-09-21 23:07:00,62.4,55.1,29.77,NNE,30,0.0,0.0,77,0.00,,,1.35,WeatherCatV1.21B27,2013-09-22 03:07:00,
2013-09-21 23:12:00,62.3,55.0,29.77,NNE,30,0.0,9.0,77,0.00,,,1.35,WeatherCatV1.21B27,2013-09-22 03:12:00,
2013-09-21 23:17:00,62.1,54.8,29.77,South,173,0.0,2.0,77,0.00,,,1.35,WeatherCatV1.21B27,2013-09-22 03:17:00,
2013-09-21 23:22:00,61.9,54.6,29.77,North,351,0.0,5.0,77,0.00,,,1.35,WeatherCatV1.21B27,2013-09-22 03:22:00,
2013-09-21 23:27:00,61.7,54.0,29.78,SSW,192,2.0,4.0,76,0.00,,,1.35,WeatherCatV1.21B27,2013-09-22 03:27:00,
2013-09-21 23:32:00,61.6,54.0,29.77,WNW,296,1.0,2.0,76,0.00,,,1.35,WeatherCatV1.21B27,2013-09-22 03:32:00,
2013-09-21 23:37:00,61.5,53.5,29.78,North,351,2.0,3.0,75,0.00,,,1.35,WeatherCatV1.21B27,2013-09-22 03:37:00,
2013-09-21 23:42:00,61.4,53.8,29.78,NW,309,0.0,3.0,76,0.00,,,1.35,WeatherCatV1.21B27,2013-09-22 03:42:00,
2013-09-21 23:47:00,61.4,54.1,29.78,North,9,0.0,4.0,77,0.00,,,1.35,WeatherCatV1.21B27,2013-09-22 03:47:00,
2013-09-21 23:52:00,61.2,53.9,29.78,SE,136,1.0,1.0,77,0.00,,,1.35,WeatherCatV1.21B27,2013-09-22 03:52:00,
2013-09-21 23:57:00,61.0,53.7,29.78,NNW,345,2.0,5.0,77,0.00,,,1.35,WeatherCatV1.21B27,2013-09-22 03:57:00,